Atyray, Kazakhstan

11:04 AM AQTT on July 23, 2014 (GMT +0500)
Atyrau (UATG) Elev -72 ft | 47.12 °N, 51.83 °E | Change Station

Current weather conditions updated 34 minutes ago

Clear
Clear
81 °F
Feels Like 81 °F
N
9
Wind Variable Wind from NNW

Today is forecast to be Warmer than yesterday.

Today
High -- | Low -- °F
--% Chance of Precip.
Yesterday
High -- | Low -- °F
Precip. -- in
6:00 AM 9:16 PM
Waning Crescent, 12% visible
Pressure 29.92 in
Visibility -9999.0 miles
Clouds
Dew Point 30 °F
Humidity 16%
Rainfall 0.00 in
Snow Depth Not available.
UV Not available.
Pollen Not available.
Air Quality Not available.
Flu Activity Not available.
METAR UATG 230530Z 34004MPS 310V020 CAVOK 27/M01 Q1013 R32/CLRD70 NOSIG RMK QFE762/1016

More Conditions Fewer Conditions

Pressure 29.92 in
Visibility -9999.0 miles
Clouds
Dew Point 30 °F
Humidity 16%
Rainfall 0.00 in
Snow Depth Not available.
UV Not available.
Pollen Not available.
Air Quality Not available.
Flu Activity Not available.
METAR UATG 230530Z 34004MPS 310V020 CAVOK 27/M01 Q1013 R32/CLRD70 NOSIG RMK QFE762/1016

More Conditions Fewer Conditions

10-Day Weather Forecast

Almanac

Astronomy

Jul. 23, 2014 Rise Set
Actual Time 6:00 AM AQTT 9:16 PM AQTT
Civil Twilight 5:23 AM AQTT 9:53 PM AQTT
Nautical Twilight 4:34 AM AQTT 10:41 PM AQTT
Astronomical Twilight 3:32 AM AQTT 11:42 PM AQTT
Moon 3:02 AM AQTT 6:24 PM AQTT
Length of Visible Light 16h 30m
Length of Day
15h 16m
Tomorrow will be 2m 14s shorter.
Waning Crescent, 12% of the Moon is Illuminated
Today
Waning Crescent
Jul 26
New
Aug 3
First Quarter
Aug 10
Full
Aug 17
Last Quarter

Yesterday's Extremes

Country Highs Country Lows

Community

WunderPhotos

Upload Photos

1,736,515 photos uploaded!

Nearby

Snow Depth

Not available.

Earthquake Activity

City Distance Mag. Time & Date
No recent earthquake activity has been reported nearby.
Minimum magnitude displayed is 2.5.

Coastal Water Temperatures

Place Temperature
No Stations Reporting

Nearby Weather Stations

There are no personal weather stations in this area.